Cottenham, United Kingdom
Current Conditions -  °F | °C
As of 10:50 AM on Saturday 20 Dec 2014 (Local Time) from EGSC Reporting Station
Scattered Clouds Scattered Clouds  
Wind Chill: 40°   Ceiling: Unl
Heat Index: 46°   Visibility: 6mi
Dew Point: 37°   Wind: 16mph
Humidity: 71%   Direction: 250°WSW
Pressure: 30.21"   Gusts: NA
Location:  52.29°N, 0.13°E
Report Text: EGSC 201050Z 25014KT 210V280 9999 SCT022 SCT045 08/03 Q1023
Loading
Personal Weather Stations






























Interactive Weather Map New forecast layout! Learn more

10-Day Weather Forecast

Advertisements
Track Severe Weather on mobile